EDT,Max TemperatureF,Mean TemperatureF,Min TemperatureF,Max Dew PointF,MeanDew PointF,Min DewpointF,Max Humidity, Mean Humidity, Min Humidity, Max Sea Level PressureIn, Mean Sea Level PressureIn, Min Sea Level PressureIn, Max VisibilityMiles, Mean VisibilityMiles, Min VisibilityMiles, Max Wind SpeedMPH, Mean Wind SpeedMPH, Max Gust SpeedMPH,PrecipitationIn, CloudCover, Events, WindDirDegrees
2013-6-1,81,74,66,65,63,54,94,75,39,29.82,29.71,29.64,10,10,7,18,9,25,0.00,3,,197
2013-6-2,68,56,45,63,51,37,95,77,54,29.99,29.75,29.55,10,10,4,24,9,30,0.04,7,Rain,276
2013-6-3,67,50,33,42,37,32,97,68,30,30.10,30.02,29.98,10,10,10,18,7,28,0.00,2,,279
2013-6-4,61,48,34,42,36,32,96,59,34,30.21,30.18,30.10,10,10,10,10,3,,0.00,2,Rain,71
2013-6-5,59,54,49,48,44,39,90,73,49,30.24,30.17,30.10,10,10,10,14,4,16,0.00,6,Rain,46
2013-6-6,61,54,48,47,42,37,88,64,49,30.10,30.00,29.96,10,10,10,16,10,23,0.00,2,,49
2013-6-7,62,52,41,49,47,40,97,78,62,29.96,29.94,29.92,10,10,5,15,7,20,0.00,2,,20
2013-6-8,69,57,45,56,50,41,97,80,55,30.08,29.98,29.92,10,10,3,13,2,17,0.25,3,Rain,170
2013-6-9,68,55,42,56,50,41,98,77,57,30.15,30.10,30.03,10,10,7,10,3,18,0.00,2,,96
2013-6-10,58,56,55,57,53,48,99,91,69,30.02,29.88,29.80,10,5,0,9,6,,0.02,7,Fog-Rain,39
2013-6-11,68,61,54,62,58,54,100,91,77,29.88,29.84,29.79,10,8,1,10,5,,0.00,6,Rain,35
2013-6-12,69,59,49,60,56,49,100,90,70,29.92,29.85,29.72,10,8,0,8,2,,0.00,6,Fog-Rain,87
2013-6-13,76,65,54,58,54,51,99,70,43,29.95,29.79,29.70,10,9,1,18,8,25,0.00,3,Rain,8
2013-6-14,63,53,43,52,43,38,90,59,44,30.11,30.05,29.96,10,10,10,16,10,22,0.00,1,,30
2013-6-15,76,59,42,60,49,40,93,67,36,30.06,29.98,29.86,10,10,4,12,2,17,0.12,2,Rain,164
2013-6-16,83,71,59,64,59,45,99,77,29,29.85,29.78,29.73,10,9,2,20,6,28,0.26,6,Rain,243
2013-6-17,64,58,51,57,53,48,95,83,67,30.00,29.92,29.82,10,10,7,13,5,17,0.00,5,Rain,37
2013-6-18,63,53,43,51,44,33,97,66,33,30.12,30.07,29.99,10,10,10,15,8,20,0.00,1,,29
2013-6-19,70,54,37,44,39,35,93,58,29,30.20,30.16,30.12,10,10,10,12,3,17,0.00,0,,129
2013-6-20,78,60,43,53,47,40,93,61,30,30.19,30.17,30.14,10,10,10,14,4,18,0.00,0,,187
2013-6-21,83,68,53,64,58,50,98,69,44,30.19,30.11,30.00,10,10,4,15,4,21,0.00,1,Rain,169
2013-6-22,76,67,58,65,61,57,98,78,67,30.07,30.02,29.95,10,10,4,13,7,16,0.00,5,,146
2013-6-23,91,74,56,68,63,56,99,72,38,30.06,29.97,29.91,10,8,0,17,5,22,0.00,3,Fog,221
2013-6-24,91,80,70,68,65,61,85,63,36,29.98,29.93,29.86,10,10,10,17,8,23,0.00,1,,225
2013-6-25,83,74,65,67,64,61,90,72,49,29.88,29.84,29.80,10,10,2,14,5,21,0.00,3,Rain,243
2013-6-26,81,70,59,66,63,59,98,74,51,29.84,29.81,29.77,10,10,2,12,4,,0.00,0,,120
2013-6-27,78,70,62,67,63,61,97,87,57,29.78,29.73,29.66,10,9,2,14,2,,0.77,3,Rain,48
2013-6-28,67,63,59,64,62,59,97,93,85,29.66,29.60,29.57,10,9,5,13,4,16,0.02,7,Rain,17
2013-6-29,71,64,58,63,57,54,96,77,55,29.76,29.66,29.58,10,10,4,14,6,18,0.00,4,,17
2013-6-30,71,62,51,59,48,31,89,55,23,30.01,29.90,29.75,10,10,4,16,8,23,0.00,2,,17